Time,TemperatureF,DewpointF,PressureIn,WindDirection,WindDirectionDegrees,WindSpeedMPH,WindSpeedGustMPH,Humidity,HourlyPrecipIn,Conditions,Clouds,dailyrainin,SolarRadiationWatts/m^2,SoftwareType,DateUTC
2013-04-19 00:01:00,49.0,2.0,30.17,NNE,22,13.0,19.0,14,-99.99,,,-99.99,0.000000,,2013-04-19 06:01:00,
2013-04-19 00:11:00,48.0,2.0,30.17,NNE,23,13.0,19.0,14,-99.99,,,-99.99,0.000000,,2013-04-19 06:11:00,
2013-04-19 00:22:00,48.0,2.0,30.17,NNE,23,13.0,19.0,14,-99.99,,,-99.99,0.000000,,2013-04-19 06:22:00,
2013-04-19 00:32:00,48.0,1.0,30.18,NNE,23,14.0,19.0,13,-99.99,,,-99.99,0.000000,,2013-04-19 06:32:00,
2013-04-19 00:42:00,48.0,0.0,30.19,NNE,22,12.0,18.0,13,-99.99,,,-99.99,0.000000,,2013-04-19 06:42:00,
2013-04-19 00:53:00,48.0,0.0,30.19,NNE,22,12.0,18.0,13,-99.99,,,-99.99,0.000000,,2013-04-19 06:53:00,
2013-04-19 01:02:00,47.0,0.0,30.19,NNE,21,13.0,19.0,13,-99.99,,,-99.99,0.000000,,2013-04-19 07:02:00,
2013-04-19 01:12:00,46.0,0.0,30.20,NNE,21,11.0,14.0,14,-99.99,,,-99.99,0.000000,,2013-04-19 07:12:00,
2013-04-19 01:21:00,46.0,0.0,30.20,NNE,21,11.0,14.0,14,-99.99,,,-99.99,0.000000,,2013-04-19 07:21:00,
2013-04-19 01:32:00,45.0,0.0,30.20,NNE,18,12.0,16.0,14,-99.99,,,-99.99,0.000000,,2013-04-19 07:32:00,
2013-04-19 01:42:00,45.0,-1.0,30.20,North,11,13.0,16.0,14,-99.99,,,-99.99,0.000000,,2013-04-19 07:42:00,
2013-04-19 01:52:00,45.0,-1.0,30.20,North,11,13.0,16.0,14,-99.99,,,-99.99,0.000000,,2013-04-19 07:52:00,
2013-04-19 02:02:00,45.0,-1.0,30.20,North,8,13.0,16.0,14,-99.99,,,-99.99,0.000000,,2013-04-19 08:02:00,
2013-04-19 02:12:00,45.0,-1.0,30.20,North,353,12.0,15.0,14,-99.99,,,-99.99,0.000000,,2013-04-19 08:12:00,
2013-04-19 02:21:00,45.0,-1.0,30.20,North,353,12.0,15.0,14,-99.99,,,-99.99,0.000000,,2013-04-19 08:21:00,
2013-04-19 02:32:00,44.0,-1.0,30.20,North,357,11.0,14.0,14,-99.99,,,-99.99,0.000000,,2013-04-19 08:32:00,
2013-04-19 02:42:00,44.0,-1.0,30.20,North,353,7.0,12.0,15,-99.99,,,-99.99,0.000000,,2013-04-19 08:42:00,
2013-04-19 02:52:00,44.0,-1.0,30.20,North,353,7.0,12.0,15,-99.99,,,-99.99,0.000000,,2013-04-19 08:52:00,
2013-04-19 03:01:00,44.0,-1.0,30.20,NNE,12,2.0,6.0,14,-99.99,,,-99.99,0.000000,,2013-04-19 09:01:00,
2013-04-19 03:11:00,44.0,-1.0,30.20,North,9,5.0,9.0,14,-99.99,,,-99.99,0.000000,,2013-04-19 09:11:00,
2013-04-19 03:21:00,44.0,-1.0,30.20,North,9,5.0,9.0,14,-99.99,,,-99.99,0.000000,,2013-04-19 09:21:00,
2013-04-19 03:32:00,43.0,-1.0,30.20,NNE,32,7.0,10.0,15,-99.99,,,-99.99,0.000000,,2013-04-19 09:32:00,
2013-04-19 03:42:00,42.0,-1.0,30.20,NNE,24,9.0,11.0,16,-99.99,,,-99.99,0.000000,,2013-04-19 09:42:00,
2013-04-19 03:52:00,42.0,-1.0,30.20,NNE,24,9.0,11.0,16,-99.99,,,-99.99,0.000000,,2013-04-19 09:52:00,
2013-04-19 04:02:00,42.0,-1.0,30.21,NNE,27,9.0,13.0,16,-99.99,,,-99.99,0.000000,,2013-04-19 10:02:00,
2013-04-19 04:13:00,41.0,-1.0,30.21,NNE,20,10.0,13.0,16,-99.99,,,-99.99,0.000000,,2013-04-19 10:13:00,
2013-04-19 04:23:00,41.0,-1.0,30.21,NNE,20,10.0,13.0,16,-99.99,,,-99.99,0.000000,,2013-04-19 10:23:00,
2013-04-19 04:33:00,41.0,-1.0,30.21,North,355,7.0,11.0,16,-99.99,,,-99.99,0.000000,,2013-04-19 10:33:00,
2013-04-19 04:42:00,41.0,0.0,30.20,NNW,337,9.0,11.0,17,-99.99,,,-99.99,0.000000,,2013-04-19 10:42:00,
2013-04-19 04:52:00,41.0,0.0,30.20,NNW,337,9.0,11.0,17,-99.99,,,-99.99,0.000000,,2013-04-19 10:52:00,
2013-04-19 05:02:00,41.0,0.0,30.20,NNW,336,7.0,9.0,17,-99.99,,,-99.99,0.000000,,2013-04-19 11:02:00,
2013-04-19 05:11:00,39.0,0.0,30.21,North,359,8.0,10.0,18,-99.99,,,-99.99,0.000000,,2013-04-19 11:11:00,
2013-04-19 05:22:00,39.0,0.0,30.21,North,359,8.0,10.0,18,-99.99,,,-99.99,0.000000,,2013-04-19 11:22:00,
2013-04-19 05:32:00,38.0,0.0,30.20,North,349,9.0,11.0,18,-99.99,,,-99.99,0.000000,,2013-04-19 11:32:00,
2013-04-19 05:42:00,39.0,0.0,30.21,North,351,9.0,15.0,18,-99.99,,,-99.99,0.000000,,2013-04-19 11:42:00,
2013-04-19 05:52:00,39.0,0.0,30.21,North,351,9.0,15.0,18,-99.99,,,-99.99,0.000000,,2013-04-19 11:52:00,
2013-04-19 06:02:00,40.0,1.0,30.21,NNW,347,7.0,10.0,19,-99.99,,,-99.99,0.000000,,2013-04-19 12:02:00,
2013-04-19 06:12:00,40.0,1.0,30.22,NNW,345,5.0,9.0,19,-99.99,,,-99.99,0.000000,,2013-04-19 12:12:00,
2013-04-19 06:22:00,40.0,1.0,30.22,NNW,345,5.0,9.0,19,-99.99,,,-99.99,0.000000,,2013-04-19 12:22:00,
2013-04-19 06:32:00,40.0,1.0,30.22,North,356,5.0,7.0,19,-99.99,,,-99.99,0.000000,,2013-04-19 12:32:00,
2013-04-19 06:42:00,39.0,2.0,30.23,North,349,4.0,7.0,19,-99.99,,,-99.99,0.000000,,2013-04-19 12:42:00,
2013-04-19 06:53:00,39.0,2.0,30.23,North,349,4.0,7.0,19,-99.99,,,-99.99,0.000000,,2013-04-19 12:53:00,
2013-04-19 07:01:00,40.0,2.0,30.23,North,2,5.0,7.0,19,-99.99,,,-99.99,1.390000,,2013-04-19 13:01:00,
2013-04-19 07:11:00,39.0,1.0,30.24,NNE,17,5.0,6.0,20,-99.99,,,-99.99,9.760000,,2013-04-19 13:11:00,
2013-04-19 07:21:00,39.0,1.0,30.24,NNE,17,5.0,6.0,20,-99.99,,,-99.99,9.760000,,2013-04-19 13:21:00,
2013-04-19 07:32:00,38.0,1.0,30.25,NNE,29,5.0,8.0,20,-99.99,,,-99.99,39.750000,,2013-04-19 13:32:00,
2013-04-19 07:42:00,38.0,1.0,30.25,NNE,32,6.0,7.0,20,-99.99,,,-99.99,93.440002,,2013-04-19 13:42:00,
2013-04-19 07:52:00,38.0,1.0,30.25,NNE,32,6.0,7.0,20,-99.99,,,-99.99,93.440002,,2013-04-19 13:52:00,
2013-04-19 08:01:00,40.0,2.0,30.26,NE,41,6.0,8.0,19,-99.99,,,-99.99,152.020004,,2013-04-19 14:01:00,
2013-04-19 08:11:00,41.0,2.0,30.26,NNE,24,7.0,10.0,19,-99.99,,,-99.99,205.020004,,2013-04-19 14:11:00,
2013-04-19 08:22:00,41.0,2.0,30.26,NNE,24,7.0,10.0,19,-99.99,,,-99.99,205.020004,,2013-04-19 14:22:00,
2013-04-19 08:32:00,43.0,3.0,30.27,NNE,22,8.0,13.0,18,-99.99,,,-99.99,258.709991,,2013-04-19 14:32:00,
2013-04-19 08:42:00,45.0,3.0,30.27,NNE,15,11.0,15.0,17,-99.99,,,-99.99,315.190002,,2013-04-19 14:42:00,
2013-04-19 08:52:00,45.0,3.0,30.27,NNE,15,11.0,15.0,17,-99.99,,,-99.99,315.190002,,2013-04-19 14:52:00,
2013-04-19 09:01:00,47.0,3.0,30.27,NNE,18,13.0,18.0,16,-99.99,,,-99.99,370.279999,,2013-04-19 15:01:00,
2013-04-19 09:12:00,47.0,3.0,30.27,NNE,12,13.0,16.0,16,-99.99,,,-99.99,429.559998,,2013-04-19 15:12:00,
2013-04-19 09:21:00,47.0,3.0,30.27,NNE,12,13.0,16.0,16,-99.99,,,-99.99,429.559998,,2013-04-19 15:21:00,
2013-04-19 09:33:00,48.0,3.0,30.27,NNE,16,11.0,16.0,15,-99.99,,,-99.99,486.040009,,2013-04-19 15:33:00,
2013-04-19 09:43:00,49.0,3.0,30.27,NNE,26,12.0,17.0,15,-99.99,,,-99.99,541.830017,,2013-04-19 15:43:00,
2013-04-19 09:52:00,49.0,3.0,30.27,NNE,26,12.0,17.0,15,-99.99,,,-99.99,541.830017,,2013-04-19 15:52:00,
2013-04-19 10:03:00,49.0,3.0,30.27,NNE,24,13.0,16.0,14,-99.99,,,-99.99,596.919983,,2013-04-19 16:03:00,
2013-04-19 10:13:00,50.0,3.0,30.28,NNE,21,13.0,19.0,14,-99.99,,,-99.99,647.820007,,2013-04-19 16:13:00,
2013-04-19 10:23:00,50.0,3.0,30.28,NNE,21,13.0,19.0,14,-99.99,,,-99.99,647.820007,,2013-04-19 16:23:00,
2013-04-19 10:32:00,50.0,3.0,30.28,NNE,28,13.0,23.0,14,-99.99,,,-99.99,696.640015,,2013-04-19 16:32:00,
2013-04-19 10:42:00,51.0,3.0,30.28,NE,34,11.0,17.0,13,-99.99,,,-99.99,742.659973,,2013-04-19 16:42:00,
2013-04-19 10:53:00,51.0,3.0,30.28,NE,34,11.0,17.0,13,-99.99,,,-99.99,742.659973,,2013-04-19 16:53:00,
2013-04-19 11:02:00,51.0,3.0,30.28,NE,42,10.0,16.0,13,-99.99,,,-99.99,735.690002,,2013-04-19 17:02:00,
2013-04-19 11:12:00,52.0,3.0,30.28,NE,43,10.0,14.0,13,-99.99,,,-99.99,822.849976,,2013-04-19 17:12:00,
2013-04-19 11:21:00,52.0,3.0,30.28,NE,43,10.0,14.0,13,-99.99,,,-99.99,822.849976,,2013-04-19 17:21:00,
2013-04-19 11:33:00,52.0,2.0,30.28,NNE,28,9.0,15.0,12,-99.99,,,-99.99,836.099976,,2013-04-19 17:33:00,
2013-04-19 11:42:00,53.0,2.0,30.27,NE,42,8.0,14.0,12,-99.99,,,-99.99,903.049988,,2013-04-19 17:42:00,
2013-04-19 11:52:00,53.0,2.0,30.27,NE,42,8.0,14.0,12,-99.99,,,-99.99,903.049988,,2013-04-19 17:52:00,
2013-04-19 12:02:00,54.0,2.0,30.27,NNE,27,5.0,12.0,11,-99.99,,,-99.99,933.729980,,2013-04-19 18:02:00,
2013-04-19 12:13:00,55.0,2.0,30.26,NE,43,6.0,14.0,11,-99.99,,,-99.99,962.320007,,2013-04-19 18:13:00,
2013-04-19 12:23:00,55.0,2.0,30.26,NE,43,6.0,14.0,11,-99.99,,,-99.99,962.320007,,2013-04-19 18:23:00,
2013-04-19 12:33:00,55.0,2.0,30.25,ENE,75,5.0,12.0,11,-99.99,,,-99.99,988.820007,,2013-04-19 18:33:00,
2013-04-19 12:43:00,56.0,2.0,30.24,ENE,62,5.0,11.0,10,-99.99,,,-99.99,1004.159973,,2013-04-19 18:43:00,
2013-04-19 12:52:00,56.0,2.0,30.24,ENE,62,5.0,11.0,10,-99.99,,,-99.99,1004.159973,,2013-04-19 18:52:00,
2013-04-19 13:01:00,58.0,2.0,30.23,SW,228,2.0,7.0,10,-99.99,,,-99.99,1013.919983,,2013-04-19 19:01:00,
2013-04-19 13:11:00,58.0,2.0,30.23,NE,39,4.0,12.0,10,-99.99,,,-99.99,1025.079956,,2013-04-19 19:11:00,
2013-04-19 13:21:00,58.0,2.0,30.23,NE,39,4.0,12.0,10,-99.99,,,-99.99,1025.079956,,2013-04-19 19:21:00,
2013-04-19 13:32:00,58.0,1.0,30.22,NE,36,6.0,13.0,9,-99.99,,,-99.99,1033.449951,,2013-04-19 19:32:00,
2013-04-19 13:42:00,59.0,1.0,30.22,NNW,328,4.0,13.0,9,-99.99,,,-99.99,1032.050049,,2013-04-19 19:42:00,
2013-04-19 13:52:00,59.0,1.0,30.22,NNW,328,4.0,13.0,9,-99.99,,,-99.99,1032.050049,,2013-04-19 19:52:00,
2013-04-19 14:02:00,59.0,1.0,30.20,SSW,211,3.0,8.0,9,-99.99,,,-99.99,1025.079956,,2013-04-19 20:02:00,
2013-04-19 14:11:00,60.0,1.0,30.19,WSW,251,4.0,11.0,8,-99.99,,,-99.99,1015.320007,,2013-04-19 20:11:00,
2013-04-19 14:22:00,60.0,1.0,30.19,WSW,251,4.0,11.0,8,-99.99,,,-99.99,1015.320007,,2013-04-19 20:22:00,
2013-04-19 14:32:00,61.0,1.0,30.18,SE,140,5.0,10.0,8,-99.99,,,-99.99,1002.770020,,2013-04-19 20:32:00,
2013-04-19 14:42:00,62.0,2.0,30.17,NW,309,3.0,7.0,8,-99.99,,,-99.99,985.330017,,2013-04-19 20:42:00,
2013-04-19 14:52:00,62.0,2.0,30.17,NW,309,3.0,7.0,8,-99.99,,,-99.99,985.330017,,2013-04-19 20:52:00,
2013-04-19 15:01:00,62.0,1.0,30.17,SSE,151,4.0,9.0,8,-99.99,,,-99.99,963.710022,,2013-04-19 21:01:00,
2013-04-19 15:11:00,63.0,2.0,30.16,SE,124,4.0,12.0,8,-99.99,,,-99.99,939.309998,,2013-04-19 21:11:00,
2013-04-19 15:21:00,63.0,2.0,30.16,SE,124,4.0,12.0,8,-99.99,,,-99.99,939.309998,,2013-04-19 21:21:00,
2013-04-19 15:32:00,64.0,2.0,30.15,SSW,200,5.0,12.0,8,-99.99,,,-99.99,907.929993,,2013-04-19 21:32:00,
2013-04-19 15:42:00,64.0,2.0,30.15,SSW,206,4.0,14.0,8,-99.99,,,-99.99,874.460022,,2013-04-19 21:42:00,
2013-04-19 15:53:00,64.0,2.0,30.15,SSW,206,4.0,14.0,8,-99.99,,,-99.99,874.460022,,2013-04-19 21:53:00,
2013-04-19 16:02:00,64.0,2.0,30.14,South,188,8.0,13.0,8,-99.99,,,-99.99,828.429993,,2013-04-19 22:02:00,
2013-04-19 16:12:00,65.0,2.0,30.13,South,182,5.0,14.0,7,-99.99,,,-99.99,781.010010,,2013-04-19 22:12:00,
2013-04-19 16:22:00,65.0,2.0,30.13,South,182,5.0,14.0,7,-99.99,,,-99.99,781.010010,,2013-04-19 22:22:00,
2013-04-19 16:33:00,65.0,1.0,30.12,South,189,6.0,15.0,7,-99.99,,,-99.99,760.090027,,2013-04-19 22:33:00,
2013-04-19 16:42:00,65.0,0.0,30.11,SE,143,5.0,11.0,7,-99.99,,,-99.99,714.070007,,2013-04-19 22:42:00,
2013-04-19 16:52:00,65.0,0.0,30.11,SE,143,5.0,11.0,7,-99.99,,,-99.99,714.070007,,2013-04-19 22:52:00,
2013-04-19 17:02:00,66.0,0.0,30.10,SE,133,5.0,12.0,7,-99.99,,,-99.99,662.469971,,2013-04-19 23:02:00,
2013-04-19 17:11:00,66.0,1.0,30.09,South,191,7.0,15.0,7,-99.99,,,-99.99,585.760010,,2013-04-19 23:11:00,
2013-04-19 17:22:00,66.0,1.0,30.09,South,191,7.0,15.0,7,-99.99,,,-99.99,585.760010,,2013-04-19 23:22:00,
2013-04-19 17:32:00,67.0,1.0,30.08,South,179,10.0,17.0,6,-99.99,,,-99.99,561.349976,,2013-04-19 23:32:00,
2013-04-19 17:42:00,67.0,1.0,30.07,SSW,193,10.0,17.0,6,-99.99,,,-99.99,507.660004,,2013-04-19 23:42:00,
2013-04-19 17:52:00,67.0,1.0,30.07,SSW,193,10.0,17.0,6,-99.99,,,-99.99,507.660004,,2013-04-19 23:52:00,
2013-04-19 18:02:00,67.0,1.0,30.07,SSW,193,11.0,20.0,6,-99.99,,,-99.99,451.170013,,2013-04-20 00:02:00,
2013-04-19 18:12:00,67.0,1.0,30.06,South,191,12.0,19.0,7,-99.99,,,-99.99,393.299988,,2013-04-20 00:12:00,
2013-04-19 18:21:00,67.0,1.0,30.06,South,191,12.0,19.0,7,-99.99,,,-99.99,393.299988,,2013-04-20 00:21:00,
2013-04-19 18:32:00,67.0,1.0,30.05,SSW,200,11.0,18.0,7,-99.99,,,-99.99,313.799988,,2013-04-20 00:32:00,
2013-04-19 18:41:00,67.0,0.0,30.04,SSW,197,12.0,19.0,6,-99.99,,,-99.99,133.889999,,2013-04-20 00:41:00,
2013-04-19 18:52:00,67.0,0.0,30.04,SSW,197,12.0,19.0,6,-99.99,,,-99.99,133.889999,,2013-04-20 00:52:00,
2013-04-19 19:01:00,67.0,-1.0,30.04,SSW,195,12.0,21.0,6,-99.99,,,-99.99,94.139999,,2013-04-20 01:01:00,
2013-04-19 19:11:00,66.0,-1.0,30.04,SSW,201,12.0,21.0,6,-99.99,,,-99.99,151.320007,,2013-04-20 01:11:00,
2013-04-19 19:21:00,66.0,-1.0,30.04,SSW,201,12.0,21.0,6,-99.99,,,-99.99,151.320007,,2013-04-20 01:21:00,
2013-04-19 19:32:00,66.0,-1.0,30.03,SSW,202,11.0,17.0,6,-99.99,,,-99.99,127.610001,,2013-04-20 01:32:00,
2013-04-19 19:42:00,65.0,-1.0,30.03,SSW,197,10.0,16.0,6,-99.99,,,-99.99,47.419998,,2013-04-20 01:42:00,
2013-04-19 19:52:00,65.0,-1.0,30.03,SSW,197,10.0,16.0,6,-99.99,,,-99.99,47.419998,,2013-04-20 01:52:00,
2013-04-19 20:01:00,64.0,-1.0,30.04,SSW,202,9.0,14.0,7,-99.99,,,-99.99,14.640000,,2013-04-20 02:01:00,
2013-04-19 20:11:00,62.0,-2.0,30.03,SSW,196,8.0,13.0,7,-99.99,,,-99.99,4.880000,,2013-04-20 02:11:00,
2013-04-19 20:21:00,62.0,-2.0,30.03,SSW,196,8.0,13.0,7,-99.99,,,-99.99,4.880000,,2013-04-20 02:21:00,
2013-04-19 20:32:00,61.0,-2.0,30.03,South,188,8.0,11.0,7,-99.99,,,-99.99,0.700000,,2013-04-20 02:32:00,
2013-04-19 20:42:00,60.0,-2.0,30.03,South,190,9.0,12.0,7,-99.99,,,-99.99,0.000000,,2013-04-20 02:42:00,
2013-04-19 20:52:00,60.0,-2.0,30.03,South,190,9.0,12.0,7,-99.99,,,-99.99,0.000000,,2013-04-20 02:52:00,
2013-04-19 21:01:00,59.0,-2.0,30.03,SSW,194,8.0,13.0,7,-99.99,,,-99.99,0.000000,,2013-04-20 03:01:00,
2013-04-19 21:11:00,59.0,-2.0,30.03,South,191,9.0,14.0,7,-99.99,,,-99.99,0.000000,,2013-04-20 03:11:00,
2013-04-19 21:21:00,59.0,-2.0,30.03,South,191,9.0,14.0,7,-99.99,,,-99.99,0.000000,,2013-04-20 03:21:00,
2013-04-19 21:33:00,58.0,-3.0,30.04,South,181,7.0,12.0,8,-99.99,,,-99.99,0.000000,,2013-04-20 03:33:00,
2013-04-19 21:43:00,58.0,-3.0,30.04,South,187,8.0,13.0,8,-99.99,,,-99.99,0.000000,,2013-04-20 03:43:00,
2013-04-19 21:53:00,58.0,-3.0,30.04,South,187,8.0,13.0,8,-99.99,,,-99.99,0.000000,,2013-04-20 03:53:00,
2013-04-19 22:03:00,58.0,-3.0,30.04,South,177,9.0,12.0,8,-99.99,,,-99.99,0.000000,,2013-04-20 04:03:00,
2013-04-19 22:12:00,57.0,-3.0,30.04,South,172,8.0,12.0,8,-99.99,,,-99.99,0.000000,,2013-04-20 04:12:00,
2013-04-19 22:23:00,57.0,-3.0,30.04,South,172,8.0,12.0,8,-99.99,,,-99.99,0.000000,,2013-04-20 04:23:00,
2013-04-19 22:32:00,57.0,-3.0,30.04,South,169,8.0,14.0,8,-99.99,,,-99.99,0.000000,,2013-04-20 04:32:00,
2013-04-19 22:42:00,57.0,-3.0,30.04,SSE,166,8.0,12.0,8,-99.99,,,-99.99,0.000000,,2013-04-20 04:42:00,
2013-04-19 22:53:00,57.0,-3.0,30.04,SSE,166,8.0,12.0,8,-99.99,,,-99.99,0.000000,,2013-04-20 04:53:00,
2013-04-19 23:02:00,55.0,-3.0,30.03,SSE,164,8.0,13.0,8,-99.99,,,-99.99,0.000000,,2013-04-20 05:02:00,
2013-04-19 23:12:00,55.0,-4.0,30.03,South,178,9.0,13.0,8,-99.99,,,-99.99,0.000000,,2013-04-20 05:12:00,
2013-04-19 23:22:00,55.0,-4.0,30.03,South,178,9.0,13.0,8,-99.99,,,-99.99,0.000000,,2013-04-20 05:22:00,
2013-04-19 23:32:00,55.0,-3.0,30.03,South,178,9.0,12.0,8,-99.99,,,-99.99,0.000000,,2013-04-20 05:32:00,
2013-04-19 23:42:00,55.0,-3.0,30.02,South,183,7.0,10.0,8,-99.99,,,-99.99,0.000000,,2013-04-20 05:42:00,
2013-04-19 23:52:00,55.0,-3.0,30.02,South,183,7.0,10.0,8,-99.99,,,-99.99,0.000000,,2013-04-20 05:52:00,